Time;durP1;ratioP1;P1;durP2;ratioP2;P2;SDS_P1;SDS_P2;PMS_P1;PMS_P2;Temp;Humidity;BMP_temperature;BMP_pressure;BME280_temperature;BME280_humidity;BME280_pressure;Samples;Min_cycle;Max_cycle;Signal;HPM_P1;HPM_P2
2023/08/05 00:00:19;;;;;;;6.63;4.10;;;18.30;99.90;;;;;;5007641;28;20415;-54
2023/08/05 00:02:45;;;;;;;6.23;3.87;;;18.30;99.90;;;;;;4992263;28;20436;-54
2023/08/05 00:05:12;;;;;;;5.30;4.27;;;18.30;99.90;;;;;;4992311;28;20471;-54
2023/08/05 00:07:38;;;;;;;7.30;4.30;;;18.40;99.90;;;;;;4992305;28;20780;-55
2023/08/05 00:10:07;;;;;;;6.83;4.70;;;18.30;99.90;;;;;;4992462;28;20412;-54
2023/08/05 00:12:34;;;;;;;7.17;4.50;;;18.30;99.90;;;;;;4992499;28;20446;-54
2023/08/05 00:15:02;;;;;;;5.93;4.40;;;18.40;99.90;;;;;;4992192;28;20456;-55
2023/08/05 00:17:28;;;;;;;8.40;4.90;;;18.30;99.90;;;;;;4992059;28;20831;-54
2023/08/05 00:19:55;;;;;;;6.97;4.77;;;18.20;99.90;;;;;;4992398;28;20447;-54
2023/08/05 00:22:22;;;;;;;6.70;4.47;;;18.60;99.90;;;;;;4992519;28;20441;-55
2023/08/05 00:24:48;;;;;;;10.60;5.60;;;18.30;99.90;;;;;;4992312;28;20453;-54
2023/08/05 00:27:16;;;;;;;4.70;4.17;;;18.30;99.90;;;;;;4992105;28;20437;-54
2023/08/05 00:29:45;;;;;;;7.03;4.70;;;;;;;;;;4992408;28;20447;-53
2023/08/05 00:32:13;;;;;;;7.90;5.17;;;;;;;;;;4991949;28;20419;-54
2023/08/05 00:34:40;;;;;;;7.30;4.87;;;;;;;;;;5007285;28;20484;-54
2023/08/05 00:37:06;;;;;;;6.07;5.00;;;18.00;99.90;;;;;;5007256;28;20852;-54
2023/08/05 00:39:33;;;;;;;12.30;5.50;;;18.10;99.90;;;;;;5007388;28;20451;-54
2023/08/05 00:41:59;;;;;;;6.03;4.40;;;17.90;99.90;;;;;;4992269;28;20437;-54
2023/08/05 00:44:27;;;;;;;8.83;5.17;;;17.90;99.90;;;;;;4992093;28;20475;-55
2023/08/05 00:46:54;;;;;;;5.23;4.40;;;;;;;;;;4991779;28;20436;-55
2023/08/05 00:49:21;;;;;;;6.17;4.87;;;17.80;99.90;;;;;;5007354;28;20463;-55
2023/08/05 00:51:49;;;;;;;7.30;4.60;;;17.90;99.90;;;;;;4992328;28;20951;-56
2023/08/05 00:54:16;;;;;;;7.60;4.90;;;17.90;99.90;;;;;;4992576;28;20456;-55
2023/08/05 00:56:43;;;;;;;5.73;3.70;;;18.00;99.90;;;;;;4991922;28;20520;-54
2023/08/05 00:59:11;;;;;;;6.10;4.27;;;;;;;;;;4991956;28;20978;-53
2023/08/05 01:01:38;;;;;;;5.70;4.33;;;17.90;99.90;;;;;;5010682;28;20825;-54
2023/08/05 01:04:05;;;;;;;8.67;7.87;;;17.90;99.90;;;;;;5010735;28;20835;-53
2023/08/05 01:06:33;;;;;;;5.00;4.30;;;18.00;99.90;;;;;;5010857;28;20546;-54
2023/08/05 01:09:00;;;;;;;6.13;4.40;;;17.70;99.90;;;;;;4995605;28;20981;-54
2023/08/05 01:11:27;;;;;;;6.80;4.17;;;17.80;99.90;;;;;;5010755;28;20471;-55
2023/08/05 01:13:54;;;;;;;6.90;4.73;;;17.70;99.90;;;;;;5010736;28;20460;-54
2023/08/05 01:16:21;;;;;;;8.70;5.27;;;;;;;;;;4995377;28;20499;-54
2023/08/05 01:18:49;;;;;;;5.80;4.30;;;17.70;99.90;;;;;;4995347;28;20443;-54
2023/08/05 01:21:22;;;;;;;6.90;4.33;;;17.40;99.90;;;;;;4995476;28;20436;-54
2023/08/05 01:23:59;;;;;;;7.63;4.83;;;17.70;99.90;;;;;;5010398;28;20475;-54
2023/08/05 01:26:26;;;;;;;6.40;4.87;;;17.60;99.90;;;;;;4995313;28;20432;-55
2023/08/05 01:28:53;;;;;;;10.67;4.40;;;17.60;99.90;;;;;;4995208;28;20436;-54
2023/08/05 01:31:20;;;;;;;7.37;4.47;;;17.70;99.90;;;;;;5010367;28;20456;-54
2023/08/05 01:33:48;;;;;;;7.10;5.13;;;17.60;99.90;;;;;;5009987;28;20471;-54
2023/08/05 01:36:20;;;;;;;8.53;5.37;;;17.60;99.90;;;;;;4995169;28;20479;-54
2023/08/05 01:38:47;;;;;;;8.20;5.40;;;17.10;99.90;;;;;;4993712;28;20521;-54
2023/08/05 01:41:14;;;;;;;6.70;5.00;;;;;;;;;;5010257;28;20523;-54
2023/08/05 01:43:43;;;;;;;7.60;5.10;;;;;;;;;;5009977;28;20846;-53
2023/08/05 01:46:10;;;;;;;7.50;4.73;;;17.40;99.90;;;;;;4995128;28;20444;-54
2023/08/05 01:48:36;;;;;;;9.93;4.60;;;17.60;99.90;;;;;;4994671;28;20440;-53
2023/08/05 01:51:03;;;;;;;7.10;4.40;;;17.40;99.90;;;;;;5010081;28;20448;-53
2023/08/05 01:53:30;;;;;;;4.83;3.93;;;17.50;99.90;;;;;;4994760;28;20434;-54
2023/08/05 01:55:56;;;;;;;5.83;4.13;;;17.70;99.90;;;;;;5009921;28;21014;-54
2023/08/05 01:58:23;;;;;;;8.80;4.30;;;17.20;99.90;;;;;;5009584;28;20424;-54
2023/08/05 02:00:54;;;;;;;4.47;3.80;;;17.20;99.90;;;;;;5009840;28;20426;-54
2023/08/05 02:03:23;;;;;;;5.40;4.10;;;17.20;99.90;;;;;;5009826;28;20513;-54
2023/08/05 02:05:49;;;;;;;6.83;4.90;;;17.60;99.90;;;;;;4993414;28;20440;-55
2023/08/05 02:08:16;;;;;;;5.70;3.63;;;17.40;99.90;;;;;;4994324;28;20435;-54
2023/08/05 02:10:42;;;;;;;6.20;3.90;;;17.40;99.90;;;;;;5009618;28;20452;-54
2023/08/05 02:13:09;;;;;;;6.13;3.60;;;17.50;99.90;;;;;;4994519;28;20780;-55
2023/08/05 02:15:36;;;;;;;7.00;4.60;;;;;;;;;;4993228;28;20460;-54
2023/08/05 02:18:04;;;;;;;6.20;3.93;;;17.40;99.90;;;;;;5009229;28;20438;-54
2023/08/05 02:20:31;;;;;;;10.40;4.40;;;17.30;99.90;;;;;;4994537;28;20433;-55
2023/08/05 02:22:58;;;;;;;9.00;4.67;;;17.40;99.90;;;;;;4992990;28;20443;-55
2023/08/05 02:25:24;;;;;;;6.40;4.40;;;;;;;;;;5009403;28;20471;-56
2023/08/05 02:27:51;;;;;;;5.77;4.17;;;17.30;99.90;;;;;;5009002;28;20818;-56
2023/08/05 02:30:18;;;;;;;7.03;4.37;;;;;;;;;;4992897;28;20459;-55
2023/08/05 02:32:45;;;;;;;9.07;4.57;;;;;;;;;;5009166;28;20441;-54
2023/08/05 02:35:13;;;;;;;5.43;4.20;;;17.10;99.90;;;;;;5009037;28;20448;-56
2023/08/05 02:37:40;;;;;;;7.23;4.50;;;17.20;99.90;;;;;;4993716;28;20455;-55
2023/08/05 02:40:08;;;;;;;4.90;4.20;;;17.10;99.90;;;;;;4994154;28;20408;-55
2023/08/05 02:42:35;;;;;;;4.33;3.73;;;;;;;;;;4992782;28;20497;-53
2023/08/05 02:45:01;;;;;;;5.17;4.07;;;17.10;99.90;;;;;;4993929;28;20959;-54
2023/08/05 02:47:28;;;;;;;4.83;4.33;;;;;;;;;;5008458;28;20924;-54
2023/08/05 02:49:55;;;;;;;8.83;4.83;;;16.80;99.90;;;;;;5008863;28;20429;-54
2023/08/05 02:52:23;;;;;;;6.67;4.30;;;17.00;99.90;;;;;;4994008;28;20896;-54
2023/08/05 02:54:50;;;;;;;7.60;4.70;;;;;;;;;;4993914;28;20457;-53
2023/08/05 02:57:17;;;;;;;4.80;4.30;;;;;;;;;;5008404;28;20910;-54
2023/08/05 02:59:44;;;;;;;6.90;4.30;;;16.90;99.90;;;;;;4993861;28;20410;-54
2023/08/05 03:02:10;;;;;;;5.23;4.50;;;17.00;99.90;;;;;;4993523;28;20824;-54
2023/08/05 03:04:37;;;;;;;5.90;4.60;;;17.00;99.90;;;;;;5008604;28;20463;-54
2023/08/05 03:07:04;;;;;;;6.73;4.30;;;16.30;99.90;;;;;;5008208;28;20455;-54
2023/08/05 03:09:31;;;;;;;8.00;5.57;;;16.70;99.90;;;;;;4992133;28;20972;-55
2023/08/05 03:11:58;;;;;;;5.90;4.03;;;16.50;99.90;;;;;;4993490;28;20414;-54
2023/08/05 03:14:25;;;;;;;6.43;4.13;;;16.90;99.90;;;;;;4992204;28;20469;-54
2023/08/05 03:16:52;;;;;;;5.33;4.63;;;16.60;99.90;;;;;;5007932;28;20456;-54
2023/08/05 03:19:20;;;;;;;5.03;4.43;;;16.90;99.90;;;;;;5008329;28;20512;-54
2023/08/05 03:21:49;;;;;;;5.43;4.73;;;16.40;99.90;;;;;;4991574;28;20429;-54
2023/08/05 03:24:15;;;;;;;8.13;4.13;;;16.50;99.90;;;;;;5008344;28;20994;-54
2023/08/05 03:26:48;;;;;;;5.57;4.27;;;16.40;99.90;;;;;;5008029;28;20425;-55
2023/08/05 03:29:15;;;;;;;4.63;4.20;;;16.60;99.90;;;;;;4993039;28;20485;-55
2023/08/05 03:31:42;;;;;;;6.60;3.97;;;16.50;99.90;;;;;;5007983;28;20421;-55
2023/08/05 03:34:09;;;;;;;7.77;4.50;;;16.40;99.90;;;;;;5008082;28;20560;-55
2023/08/05 03:36:37;;;;;;;6.53;3.93;;;16.70;99.90;;;;;;5007832;28;20449;-55
2023/08/05 03:39:04;;;;;;;4.73;4.20;;;16.30;99.90;;;;;;5008027;28;20519;-55
2023/08/05 03:41:31;;;;;;;7.80;4.93;;;16.40;99.90;;;;;;4992807;28;20441;-54
2023/08/05 03:44:01;;;;;;;13.40;4.30;;;16.50;99.90;;;;;;5035147;23;20881;-48
2023/08/05 03:46:28;;;;;;;5.27;4.53;;;16.10;99.90;;;;;;4994687;28;20431;-48
2023/08/05 03:48:54;;;;;;;6.67;4.10;;;16.30;99.90;;;;;;4994511;28;20417;-49
2023/08/05 03:51:21;;;;;;;6.00;4.87;;;16.50;99.90;;;;;;4994798;28;20452;-49
2023/08/05 03:53:48;;;;;;;5.73;4.53;;;17.00;99.90;;;;;;4994677;28;20824;-50
2023/08/05 03:56:18;;;;;;;5.43;4.07;;;16.40;99.90;;;;;;4994884;28;20768;-48
2023/08/05 03:58:46;;;;;;;6.83;4.30;;;16.60;99.90;;;;;;4994291;28;20977;-49
2023/08/05 04:01:17;;;;;;;6.33;4.40;;;16.20;99.90;;;;;;4994555;28;20448;-49
2023/08/05 04:03:44;;;;;;;7.23;4.37;;;16.70;99.90;;;;;;5012192;28;20412;-49
2023/08/05 04:06:11;;;;;;;5.40;4.13;;;16.90;99.90;;;;;;4994572;28;20981;-48
2023/08/05 04:08:39;;;;;;;5.13;4.30;;;16.60;99.90;;;;;;4994192;28;20826;-49
2023/08/05 04:11:08;;;;;;;8.33;4.23;;;17.00;99.90;;;;;;4994541;28;20463;-50
2023/08/05 04:13:37;;;;;;;6.47;4.80;;;16.80;99.90;;;;;;5011997;28;20445;-49
2023/08/05 04:16:04;;;;;;;4.80;4.30;;;16.60;99.90;;;;;;4994437;28;20476;-49
2023/08/05 04:18:37;;;;;;;6.47;4.57;;;16.50;99.90;;;;;;4993925;28;20490;-49
2023/08/05 04:21:04;;;;;;;5.70;4.43;;;16.30;99.90;;;;;;4994772;28;20468;-49
2023/08/05 04:23:34;;;;;;;5.40;4.07;;;16.60;99.90;;;;;;5011892;28;20481;-49
2023/08/05 04:26:02;;;;;;;8.23;5.33;;;16.80;99.90;;;;;;5011904;28;20479;-49
2023/08/05 04:28:29;;;;;;;5.70;3.37;;;16.80;99.90;;;;;;5011717;28;20429;-49
2023/08/05 04:30:57;;;;;;;7.40;4.97;;;16.70;99.90;;;;;;5012028;28;20418;-49
2023/08/05 04:33:25;;;;;;;8.87;4.50;;;16.30;99.90;;;;;;5011922;28;20793;-49
2023/08/05 04:35:53;;;;;;;4.00;3.70;;;16.80;99.90;;;;;;5015868;28;20456;-49
2023/08/05 04:38:20;;;;;;;5.87;3.83;;;17.40;99.90;;;;;;5015634;28;20474;-49
2023/08/05 04:40:47;;;;;;;4.53;4.00;;;17.10;99.90;;;;;;5016010;28;20445;-49
2023/08/05 04:43:14;;;;;;;7.47;4.70;;;17.60;99.90;;;;;;4998159;28;20442;-49
2023/08/05 04:45:41;;;;;;;7.00;4.20;;;17.30;99.90;;;;;;5015543;28;20472;-48
2023/08/05 04:48:07;;;;;;;6.07;3.70;;;17.60;99.90;;;;;;5015365;28;20412;-49
2023/08/05 04:50:36;;;;;;;5.53;4.37;;;17.60;99.90;;;;;;5015805;28;20450;-49
2023/08/05 04:53:04;;;;;;;5.70;3.73;;;17.40;99.90;;;;;;5015671;28;20447;-49
2023/08/05 04:55:31;;;;;;;3.60;3.30;;;17.80;99.90;;;;;;5015445;28;20458;-49
2023/08/05 04:57:57;;;;;;;5.90;3.70;;;17.60;99.90;;;;;;5015116;28;20451;-49
2023/08/05 05:00:25;;;;;;;6.23;4.30;;;17.90;99.90;;;;;;5015605;28;20444;-49
2023/08/05 05:02:52;;;;;;;7.03;4.03;;;18.00;99.90;;;;;;5015456;28;20640;-49
2023/08/05 05:05:18;;;;;;;4.63;3.93;;;18.00;99.90;;;;;;5015264;28;20432;-49
2023/08/05 05:07:45;;;;;;;4.67;4.27;;;17.90;99.90;;;;;;5015074;28;20446;-49
2023/08/05 05:10:13;;;;;;;4.60;3.90;;;18.00;99.90;;;;;;5015374;28;20480;-49
2023/08/05 05:12:39;;;;;;;8.67;4.40;;;17.70;99.90;;;;;;5015313;28;20960;-49
2023/08/05 05:15:07;;;;;;;4.37;3.97;;;18.00;99.90;;;;;;5015218;28;20554;-50
2023/08/05 05:17:35;;;;;;;4.57;3.80;;;18.00;99.90;;;;;;5014764;28;20506;-49
2023/08/05 05:20:01;;;;;;;4.90;3.50;;;18.70;99.90;;;;;;5015031;28;20466;-49
2023/08/05 05:22:28;;;;;;;6.97;3.77;;;17.80;99.90;;;;;;5015117;28;20435;-49
2023/08/05 05:24:54;;;;;;;5.50;4.37;;;17.80;99.90;;;;;;5014923;28;20444;-49
2023/08/05 05:27:22;;;;;;;4.73;3.63;;;18.40;99.90;;;;;;5014722;28;20433;-49
2023/08/05 05:29:49;;;;;;;6.17;4.63;;;18.10;99.90;;;;;;5014948;28;20410;-49
2023/08/05 05:32:16;;;;;;;4.53;3.70;;;18.20;99.90;;;;;;5014903;28;20409;-49
2023/08/05 05:34:42;;;;;;;4.13;3.80;;;18.20;99.90;;;;;;5014623;28;20940;-48
2023/08/05 05:37:09;;;;;;;4.80;3.67;;;18.30;99.90;;;;;;5014474;28;21006;-50
2023/08/05 05:39:35;;;;;;;5.70;3.97;;;18.40;99.90;;;;;;5014793;28;20437;-48
2023/08/05 05:42:02;;;;;;;5.20;4.00;;;18.40;99.90;;;;;;5014797;28;20767;-49
2023/08/05 05:44:30;;;;;;;4.17;3.63;;;18.20;99.90;;;;;;5014195;28;20469;-49
2023/08/05 05:46:56;;;;;;;7.60;3.90;;;18.70;99.90;;;;;;5014172;28;20408;-48
2023/08/05 05:49:23;;;;;;;4.53;3.97;;;18.80;99.90;;;;;;5014661;28;20425;-49
2023/08/05 05:51:50;;;;;;;7.63;3.83;;;19.00;99.90;;;;;;5014685;28;20440;-50
2023/08/05 05:54:16;;;;;;;9.33;3.50;;;18.90;99.90;;;;;;5015260;28;20467;-50
2023/08/05 05:56:43;;;;;;;5.60;4.20;;;18.80;99.90;;;;;;5015303;28;20797;-49
2023/08/05 05:59:10;;;;;;;7.97;3.63;;;19.30;99.90;;;;;;5014505;28;20417;-49
2023/08/05 06:01:38;;;;;;;4.83;3.47;;;19.00;99.90;;;;;;5014255;28;20451;-50
2023/08/05 06:04:08;;;;;;;5.27;3.47;;;19.10;99.90;;;;;;5014368;28;20452;-49
2023/08/05 06:06:34;;;;;;;7.57;3.60;;;19.10;99.90;;;;;;5014112;28;20950;-48
2023/08/05 06:09:02;;;;;;;5.40;3.30;;;19.60;99.90;;;;;;5014228;28;20428;-49
2023/08/05 06:11:29;;;;;;;3.60;2.87;;;19.70;99.90;;;;;;5014300;28;20909;-49
2023/08/05 06:13:56;;;;;;;8.70;3.80;;;19.00;99.90;;;;;;5014407;28;20816;-49
2023/08/05 06:16:22;;;;;;;5.63;3.10;;;20.70;99.90;;;;;;5013987;28;20439;-49
2023/08/05 06:18:50;;;;;;;7.60;3.70;;;19.60;99.90;;;;;;5013777;28;20481;-49
2023/08/05 06:21:17;;;;;;;6.10;2.93;;;19.80;99.90;;;;;;5014038;28;20437;-49
2023/08/05 06:23:43;;;;;;;5.43;3.27;;;19.90;99.90;;;;;;5013918;28;20766;-49
2023/08/05 06:26:10;;;;;;;6.20;3.30;;;20.10;99.90;;;;;;4996215;28;20521;-49
2023/08/05 06:28:37;;;;;;;4.77;2.87;;;20.00;99.90;;;;;;5013586;28;20524;-49
2023/08/05 06:31:03;;;;;;;8.17;4.57;;;20.20;99.90;;;;;;5013841;28;20439;-50
2023/08/05 06:33:30;;;;;;;4.93;3.60;;;19.90;99.90;;;;;;5013636;28;20451;-49
2023/08/05 06:35:58;;;;;;;8.47;3.40;;;20.00;99.90;;;;;;5013766;28;20437;-48
2023/08/05 06:38:26;;;;;;;3.80;2.97;;;20.00;99.90;;;;;;5013168;28;20502;-48
2023/08/05 06:40:53;;;;;;;4.17;2.90;;;20.10;99.90;;;;;;5013672;28;20405;-50
2023/08/05 06:43:19;;;;;;;5.93;3.53;;;19.90;99.90;;;;;;5013748;28;20448;-50
2023/08/05 06:45:46;;;;;;;5.13;3.40;;;19.90;99.90;;;;;;5013370;28;20446;-49
2023/08/05 06:48:13;;;;;;;4.77;3.33;;;20.00;99.90;;;;;;5012922;28;20436;-49
2023/08/05 06:50:40;;;;;;;5.03;2.90;;;20.00;99.90;;;;;;5013401;28;20796;-49
2023/08/05 06:53:08;;;;;;;7.47;3.23;;;20.40;99.90;;;;;;5013410;28;20424;-49
2023/08/05 06:55:34;;;;;;;8.60;3.43;;;20.20;99.90;;;;;;5013554;28;20967;-49
2023/08/05 06:58:01;;;;;;;5.27;3.60;;;20.20;99.90;;;;;;5012123;28;21008;-49
2023/08/05 07:00:28;;;;;;;6.77;3.60;;;20.10;99.90;;;;;;5013540;28;20897;-48
2023/08/05 07:02:55;;;;;;;7.23;3.30;;;20.40;99.90;;;;;;5013140;28;20444;-49
2023/08/05 07:05:21;;;;;;;5.40;3.57;;;19.90;99.90;;;;;;5013167;28;20517;-49
2023/08/05 07:07:49;;;;;;;6.87;3.60;;;20.10;99.90;;;;;;5012851;28;20420;-48
2023/08/05 07:10:17;;;;;;;4.50;3.33;;;20.20;99.90;;;;;;4995663;28;20457;-49
2023/08/05 07:12:43;;;;;;;4.17;3.30;;;20.30;99.90;;;;;;5014268;28;20434;-49
2023/08/05 07:15:10;;;;;;;5.63;3.77;;;20.30;99.90;;;;;;4996335;28;20568;-49
2023/08/05 07:17:38;;;;;;;8.13;3.50;;;20.40;99.90;;;;;;4994688;28;20512;-49
2023/08/05 07:20:06;;;;;;;6.97;4.20;;;20.50;99.90;;;;;;5012683;28;20939;-48
2023/08/05 07:22:32;;;;;;;5.23;3.77;;;20.40;99.90;;;;;;5012939;28;20439;-49
2023/08/05 07:24:59;;;;;;;7.80;4.07;;;20.50;99.90;;;;;;5012472;28;20523;-48
2023/08/05 07:27:28;;;;;;;8.00;3.20;;;20.50;99.90;;;;;;5012202;28;20868;-48
2023/08/05 07:29:55;;;;;;;5.97;3.20;;;20.30;99.90;;;;;;5012816;28;20416;-49
2023/08/05 07:32:21;;;;;;;6.60;3.33;;;20.70;99.90;;;;;;5012741;28;20448;-49
2023/08/05 07:34:53;;;;;;;6.90;2.90;;;20.60;99.90;;;;;;5012558;28;20437;-48
2023/08/05 07:37:20;;;;;;;6.07;3.53;;;20.70;99.90;;;;;;5011900;28;20474;-48
2023/08/05 07:39:48;;;;;;;5.80;4.10;;;20.80;99.90;;;;;;5012597;28;20912;-48
2023/08/05 07:42:15;;;;;;;6.17;3.77;;;20.90;99.90;;;;;;5012754;28;20438;-49
2023/08/05 07:44:44;;;;;;;6.97;3.90;;;21.00;99.90;;;;;;5012265;28;20477;-48
2023/08/05 07:47:11;;;;;;;7.33;3.67;;;21.30;99.90;;;;;;5011912;28;20961;-49
2023/08/05 07:49:39;;;;;;;5.77;3.60;;;20.90;99.90;;;;;;5012540;28;20436;-50
2023/08/05 07:52:07;;;;;;;6.80;3.67;;;21.00;99.90;;;;;;5012424;28;20442;-49
2023/08/05 07:54:33;;;;;;;5.93;3.57;;;21.00;99.90;;;;;;5012469;28;20469;-50
2023/08/05 07:57:00;;;;;;;6.40;3.63;;;20.90;99.90;;;;;;5012066;28;20923;-49
2023/08/05 07:59:27;;;;;;;6.90;2.80;;;20.90;99.90;;;;;;5011957;28;20585;-49
2023/08/05 08:01:56;;;;;;;4.17;2.60;;;20.90;99.90;;;;;;5012109;28;20431;-49
2023/08/05 08:04:22;;;;;;;8.20;3.60;;;21.00;99.90;;;;;;5012036;28;20883;-49
2023/08/05 08:06:49;;;;;;;6.10;3.40;;;20.90;99.90;;;;;;5012034;28;20435;-51
2023/08/05 08:09:15;;;;;;;5.30;3.00;;;20.60;99.90;;;;;;5012007;28;20806;-49
2023/08/05 08:11:42;;;;;;;8.60;3.00;;;21.10;99.90;;;;;;4994564;28;20443;-49
2023/08/05 08:14:09;;;;;;;3.57;2.77;;;21.10;99.90;;;;;;5011841;28;21003;-50
2023/08/05 08:16:35;;;;;;;4.43;2.90;;;21.10;99.90;;;;;;5011816;28;20436;-48
2023/08/05 08:19:04;;;;;;;4.40;2.80;;;21.20;99.90;;;;;;4994204;28;20456;-49
2023/08/05 08:21:31;;;;;;;5.80;2.93;;;21.30;99.90;;;;;;5012084;28;20418;-49
2023/08/05 08:23:57;;;;;;;8.40;2.97;;;21.30;99.90;;;;;;5011811;28;20457;-48
2023/08/05 08:26:24;;;;;;;14.63;4.00;;;21.40;99.90;;;;;;4994198;28;20444;-48
2023/08/05 08:28:50;;;;;;;5.40;3.50;;;21.30;99.90;;;;;;5011761;28;20440;-49
2023/08/05 08:31:17;;;;;;;6.70;3.00;;;21.50;99.90;;;;;;5012025;28;20506;-48
2023/08/05 08:33:44;;;;;;;6.27;3.30;;;21.50;99.90;;;;;;5013215;28;20450;-49
2023/08/05 08:36:11;;;;;;;4.93;3.07;;;21.50;99.90;;;;;;5011923;28;20470;-49
2023/08/05 08:38:38;;;;;;;7.03;3.40;;;21.50;99.90;;;;;;5011562;28;20556;-49
2023/08/05 08:41:05;;;;;;;5.00;3.10;;;21.40;99.90;;;;;;5011934;28;20807;-49
2023/08/05 08:43:31;;;;;;;6.30;3.63;;;21.40;99.90;;;;;;5011429;28;20425;-49
2023/08/05 08:45:58;;;;;;;5.83;4.33;;;21.30;99.90;;;;;;5011730;28;20889;-49
2023/08/05 08:48:26;;;;;;;5.30;2.73;;;21.30;99.90;;;;;;5011248;28;20423;-49
2023/08/05 08:50:54;;;;;;;11.70;3.97;;;21.60;99.90;;;;;;5011725;28;20443;-49
2023/08/05 08:53:25;;;;;;;4.80;2.97;;;21.60;99.90;;;;;;5011620;28;20436;-49
2023/08/05 08:55:52;;;;;;;5.37;3.03;;;21.50;99.90;;;;;;5011655;28;20459;-49
2023/08/05 08:58:19;;;;;;;7.33;3.00;;;21.50;99.90;;;;;;5011018;28;20485;-49
2023/08/05 09:00:46;;;;;;;5.23;3.13;;;21.70;99.90;;;;;;5011731;28;20458;-49
2023/08/05 09:03:14;;;;;;;9.93;2.90;;;21.90;99.90;;;;;;5011436;28;20435;-49
2023/08/05 09:05:42;;;;;;;6.43;4.23;;;21.80;99.90;;;;;;4993578;28;20456;-49
2023/08/05 09:08:10;;;;;;;5.90;3.73;;;21.60;99.90;;;;;;5011254;28;20519;-50
2023/08/05 09:10:38;;;;;;;8.00;3.67;;;22.00;99.90;;;;;;5011471;28;20470;-49
2023/08/05 09:13:05;;;;;;;6.33;3.47;;;21.70;99.90;;;;;;5011343;28;20954;-48
2023/08/05 09:15:33;;;;;;;4.97;3.17;;;21.70;99.90;;;;;;5011373;28;20518;-48
2023/08/05 09:18:00;;;;;;;9.63;3.33;;;21.70;99.90;;;;;;5010990;28;20488;-50
2023/08/05 09:20:27;;;;;;;4.23;3.13;;;22.00;99.90;;;;;;5013346;28;20440;-50
2023/08/05 09:22:55;;;;;;;4.57;2.60;;;22.10;99.90;;;;;;5015071;28;20830;-49
2023/08/05 09:25:22;;;;;;;4.97;3.13;;;22.20;99.60;;;;;;5015063;28;20460;-49
2023/08/05 09:27:52;;;;;;;4.17;3.17;;;22.20;99.30;;;;;;4996865;28;20449;-49
2023/08/05 09:30:20;;;;;;;4.47;2.70;;;22.40;99.10;;;;;;5015185;28;20440;-49
2023/08/05 09:32:47;;;;;;;5.30;2.87;;;22.50;98.80;;;;;;5014347;28;20442;-50
2023/08/05 09:35:15;;;;;;;5.13;2.87;;;;;;;;;;5014633;28;20462;-48
2023/08/05 09:37:44;;;;;;;10.37;4.47;;;22.70;98.60;;;;;;5014282;28;20407;-49
2023/08/05 09:40:18;;;;;;;3.53;2.47;;;22.70;98.40;;;;;;5015225;28;20464;-48
2023/08/05 09:42:50;;;;;;;4.33;2.63;;;22.70;97.50;;;;;;5014480;28;20849;-49
2023/08/05 09:45:17;;;;;;;4.80;2.60;;;;;;;;;;5019839;22;20486;-54
2023/08/05 09:47:47;;;;;;;4.70;2.67;;;22.90;97.20;;;;;;4994316;28;20441;-53
2023/08/05 09:50:14;;;;;;;4.90;2.30;;;;;;;;;;4994766;28;20885;-52
2023/08/05 09:52:42;;;;;;;6.90;4.20;;;22.70;96.60;;;;;;4994808;28;20436;-54
2023/08/05 09:55:13;;;;;;;5.47;2.80;;;22.70;96.50;;;;;;4994364;28;20467;-55
2023/08/05 09:57:40;;;;;;;3.80;2.43;;;22.70;96.10;;;;;;4992697;28;20459;-54
2023/08/05 10:00:10;;;;;;;4.43;2.33;;;;;;;;;;4994573;28;20579;-53
2023/08/05 10:02:38;;;;;;;3.47;2.17;;;;;;;;;;4994340;28;20439;-55
2023/08/05 10:05:06;;;;;;;5.33;2.77;;;22.80;95.60;;;;;;4994249;28;20474;-52
2023/08/05 10:07:33;;;;;;;6.63;2.23;;;;;;;;;;4993903;28;20776;-53
2023/08/05 10:10:00;;;;;;;3.03;2.10;;;;;;;;;;4994244;28;20791;-55
2023/08/05 10:12:29;;;;;;;6.43;2.53;;;;;;;;;;4994275;28;20486;-53
2023/08/05 10:14:57;;;;;;;4.10;2.63;;;;;;;;;;4993025;28;20977;-52
2023/08/05 10:17:26;;;;;;;4.63;2.60;;;;;;;;;;4994096;28;20458;-55
2023/08/05 10:19:53;;;;;;;4.40;2.67;;;;;;;;;;4994112;28;20542;-54
2023/08/05 10:22:22;;;;;;;7.60;2.73;;;;;;;;;;4994583;28;20432;-55
2023/08/05 10:24:56;;;;;;;4.20;2.50;;;;;;;;;;4994446;28;20467;-53
2023/08/05 10:27:39;;;;;;;4.90;2.33;;;;;;;;;;4994237;28;20434;-54
2023/08/05 10:30:07;;;;;;;4.27;2.03;;;;;;;;;;4993989;28;20499;-56
2023/08/05 10:32:35;;;;;;;6.20;2.33;;;;;;;;;;4992545;28;20589;-55
2023/08/05 10:35:24;;;;;;;2.77;2.20;;;23.90;93.10;;;;;;4994042;28;20560;-55
2023/08/05 10:37:55;;;;;;;3.90;2.00;;;23.80;93.00;;;;;;4993617;28;20502;-53
2023/08/05 10:40:38;;;;;;;3.30;2.50;;;23.90;92.90;;;;;;4993837;28;20466;-55
2023/08/05 10:43:05;;;;;;;4.10;2.13;;;;;;;;;;4993521;28;20547;-56
2023/08/05 10:45:33;;;;;;;5.90;3.20;;;;;;;;;;4993898;28;20443;-54
2023/08/05 10:48:01;;;;;;;5.30;4.33;;;23.90;93.40;;;;;;4993439;28;20436;-53
2023/08/05 10:50:35;;;;;;;7.17;3.20;;;23.70;93.20;;;;;;4992504;28;20449;-54
2023/08/05 10:53:04;;;;;;;5.63;2.03;;;;;;;;;;4993648;28;20418;-54
2023/08/05 10:55:31;;;;;;;4.80;3.30;;;;;;;;;;4993166;28;20459;-54
2023/08/05 10:57:59;;;;;;;4.40;2.03;;;23.50;93.10;;;;;;4993055;28;20410;-54
2023/08/05 11:00:26;;;;;;;3.30;2.50;;;;;;;;;;4993323;28;20456;-53
2023/08/05 11:03:32;;;;;;;5.37;2.47;;;23.50;93.10;;;;;;4993274;28;20423;-54
2023/08/05 11:06:04;;;;;;;4.40;2.70;;;23.50;93.00;;;;;;4993298;28;20944;-55
2023/08/05 11:08:32;;;;;;;5.23;2.90;;;23.60;92.80;;;;;;4991602;28;20818;-56
2023/08/05 11:11:01;;;;;;;7.27;2.80;;;23.60;92.50;;;;;;4993199;28;20486;-54
2023/08/05 11:13:31;;;;;;;4.70;2.47;;;23.80;92.60;;;;;;4993114;28;20419;-55
2023/08/05 11:16:06;;;;;;;5.23;2.20;;;23.90;92.30;;;;;;4993062;28;20480;-55
2023/08/05 11:18:34;;;;;;;4.87;2.80;;;23.90;91.80;;;;;;4992727;28;20455;-53
2023/08/05 11:21:02;;;;;;;3.30;2.23;;;24.00;91.80;;;;;;4993130;28;20448;-53
2023/08/05 11:23:29;;;;;;;4.13;2.27;;;;;;;;;;4992911;28;20942;-53
2023/08/05 11:25:59;;;;;;;2.60;2.10;;;24.10;91.30;;;;;;4992776;28;20979;-53
2023/08/05 11:28:26;;;;;;;4.40;2.40;;;24.20;91.20;;;;;;4992428;28;20445;-55
2023/08/05 11:30:53;;;;;;;3.77;2.27;;;24.30;91.00;;;;;;4992803;28;20438;-53
2023/08/05 11:33:21;;;;;;;4.80;2.60;;;24.40;90.80;;;;;;4992900;28;20491;-53
2023/08/05 11:35:52;;;;;;;6.60;3.30;;;;;;;;;;4992660;28;20431;-55
2023/08/05 11:38:19;;;;;;;5.40;3.60;;;;;;;;;;4991211;28;20439;-54
2023/08/05 11:40:47;;;;;;;3.57;2.20;;;24.20;90.80;;;;;;4992739;28;20477;-55
2023/08/05 11:43:16;;;;;;;3.87;2.40;;;24.40;91.40;;;;;;4992185;28;20437;-54
2023/08/05 11:45:43;;;;;;;4.63;3.30;;;;;;;;;;4992473;28;20477;-54
2023/08/05 11:48:20;;;;;;;5.53;2.50;;;24.40;91.10;;;;;;4992297;28;20440;-55
2023/08/05 11:50:49;;;;;;;4.93;2.37;;;24.50;91.20;;;;;;4992511;28;20407;-54
2023/08/05 11:53:16;;;;;;;4.67;2.50;;;;;;;;;;4992886;28;20433;-55
2023/08/05 11:55:46;;;;;;;4.27;2.30;;;24.60;90.60;;;;;;4992347;28;20485;-53
2023/08/05 11:58:14;;;;;;;4.60;2.73;;;24.60;90.70;;;;;;4991936;28;20890;-54
2023/08/05 12:00:45;;;;;;;3.83;2.67;;;24.60;90.40;;;;;;4992579;28;20878;-55
2023/08/05 12:03:12;;;;;;;4.10;2.27;;;24.60;90.20;;;;;;4992590;28;20442;-53
2023/08/05 12:05:38;;;;;;;3.67;2.53;;;24.70;90.20;;;;;;4992221;28;20994;-54
2023/08/05 12:08:07;;;;;;;3.53;1.70;;;;;;;;;;4991910;28;20525;-54
2023/08/05 12:10:34;;;;;;;4.77;2.50;;;;;;;;;;4992387;28;20928;-54
2023/08/05 12:13:03;;;;;;;5.00;2.70;;;;;;;;;;4992238;28;20529;-54
2023/08/05 12:15:30;;;;;;;6.23;2.30;;;;;;;;;;4992341;28;20885;-54
2023/08/05 12:17:57;;;;;;;2.57;1.87;;;24.60;89.60;;;;;;4990648;28;20461;-55
2023/08/05 12:20:25;;;;;;;3.97;2.60;;;;;;;;;;4992552;28;20568;-54
2023/08/05 12:22:52;;;;;;;3.60;2.53;;;24.70;90.00;;;;;;4992165;28;20962;-53
2023/08/05 12:25:20;;;;;;;3.17;2.10;;;;;;;;;;4992049;28;20434;-54
2023/08/05 12:27:47;;;;;;;4.33;2.60;;;24.90;88.80;;;;;;4991866;28;20911;-54
2023/08/05 12:30:15;;;;;;;4.20;2.47;;;24.90;88.40;;;;;;4990668;28;20412;-53
2023/08/05 12:32:42;;;;;;;6.87;2.43;;;24.90;88.10;;;;;;4992100;28;20439;-53
2023/08/05 12:35:10;;;;;;;3.70;2.30;;;25.00;87.80;;;;;;4991959;28;20466;-54
2023/08/05 12:37:39;;;;;;;6.60;2.50;;;;;;;;;;4991497;28;20437;-54
2023/08/05 12:40:08;;;;;;;6.13;2.50;;;25.10;87.00;;;;;;4992005;28;20481;-53
2023/08/05 12:42:36;;;;;;;4.03;2.60;;;25.20;86.60;;;;;;4991843;28;20445;-54
2023/08/05 12:45:05;;;;;;;3.20;2.20;;;;;;;;;;4991936;28;20865;-55
2023/08/05 12:47:32;;;;;;;3.60;2.13;;;;;;;;;;4991617;28;20479;-53
2023/08/05 12:49:59;;;;;;;6.73;2.37;;;;;;;;;;4991720;28;20438;-54
2023/08/05 12:52:26;;;;;;;4.33;2.30;;;25.30;85.30;;;;;;4991889;28;20924;-56
2023/08/05 12:54:53;;;;;;;4.67;2.00;;;25.40;85.00;;;;;;4992758;28;20457;-54
2023/08/05 12:57:20;;;;;;;4.00;2.40;;;;;;;;;;4995178;28;20407;-55
2023/08/05 12:59:48;;;;;;;3.20;1.90;;;25.30;84.60;;;;;;4994313;28;20476;-55
2023/08/05 13:02:16;;;;;;;4.50;2.37;;;;;;;;;;4995650;28;20445;-55
2023/08/05 13:04:44;;;;;;;3.57;1.97;;;25.30;84.10;;;;;;4995229;28;20468;-53
2023/08/05 13:07:11;;;;;;;3.60;2.30;;;;;;;;;;4993840;28;20465;-54